Time;durP1;ratioP1;P1;durP2;ratioP2;P2;SDS_P1;SDS_P2;PMS_P1;PMS_P2;Temp;Humidity;BMP_temperature;BMP_pressure;BME280_temperature;BME280_humidity;BME280_pressure;Samples;Min_cycle;Max_cycle;Signal;HPM_P1;HPM_P2
2022/01/13 00:02:25;;;;;;;9.63;5.77;;;;;;;;;;5033049;28;20371;-68
2022/01/13 00:04:50;;;;;;;10.17;5.77;;;;;;;;;;5033338;28;20025;-67
2022/01/13 00:07:15;;;;;;;8.80;5.17;;;;;;;;;;5032854;28;20026;-67
2022/01/13 00:09:43;;;;;;;8.80;6.03;;;;;;;;;;5032552;28;20064;-67
2022/01/13 00:12:09;;;;;;;6.90;5.40;;;;;;;;;;5021484;28;20079;-67
2022/01/13 00:22:01;;;;;;;6.57;4.50;;;;;;;;;;5032993;28;20180;-67
2022/01/13 00:24:26;;;;;;;7.50;3.93;;;;;;;;;;5032808;28;20135;-67
2022/01/13 00:26:53;;;;;;;4.70;3.10;;;;;;;;;;5034694;28;20104;-68
2022/01/13 00:29:24;;;;;;;6.43;4.07;;;;;;;;;;5034313;28;20101;-68
2022/01/13 00:31:49;;;;;;;6.97;4.00;;;;;;;;;;5031484;28;20029;-67
2022/01/13 00:34:14;;;;;;;6.97;5.13;;;;;;;;;;5032805;28;20402;-67
2022/01/13 00:36:40;;;;;;;7.70;5.37;;;;;;;;;;5030856;28;20033;-67
2022/01/13 00:39:06;;;;;;;9.00;6.20;;;;;;;;;;5029053;28;20032;-68
2022/01/13 00:41:31;;;;;;;9.47;5.50;;;;;;;;;;5011179;28;20105;-68
2022/01/13 00:44:00;;;;;;;8.37;5.83;;;;;;;;;;5046805;28;20112;-68
2022/01/13 00:46:29;;;;;;;9.87;6.80;;;;;;;;;;5023572;28;20021;-68
2022/01/13 00:48:55;;;;;;;10.80;7.43;;;;;;;;;;5032679;28;20079;-68
2022/01/13 00:51:21;;;;;;;8.53;6.30;;;;;;;;;;5032934;28;20033;-67
2022/01/13 00:53:47;;;;;;;10.57;6.60;;;;;;;;;;5032554;28;20526;-67
2022/01/13 00:56:12;;;;;;;9.27;6.80;;;;;;;;;;5027520;28;20083;-68
2022/01/13 00:58:37;;;;;;;9.63;6.50;;;;;;;;;;5018605;28;20017;-67
2022/01/13 01:01:04;;;;;;;9.47;6.03;;;;;;;;;;5032932;28;20449;-67
2022/01/13 01:03:29;;;;;;;7.53;6.30;;;;;;;;;;5032437;28;20478;-67
2022/01/13 01:05:55;;;;;;;7.80;5.97;;;;;;;;;;5049082;28;20104;-67
2022/01/13 01:08:20;;;;;;;10.17;5.67;;;;;;;;;;5014954;28;20056;-68
2022/01/13 01:10:48;;;;;;;9.43;6.03;;;;;;;;;;5030194;28;20025;-67
2022/01/13 01:13:17;;;;;;;8.97;5.90;;;;;;;;;;5026237;28;20477;-67
2022/01/13 01:15:46;;;;;;;7.73;5.47;;;;;;;;;;5032936;28;20099;-68
2022/01/13 01:21:18;;;;;;;10.60;5.90;;;;;;;;;;5033231;28;20497;-68
2022/01/13 01:26:38;;;;;;;6.80;5.03;;;;;;;;;;5032537;28;20513;-68
2022/01/13 01:29:14;;;;;;;7.37;4.80;;;;;;;;;;5032521;28;20025;-68
2022/01/13 01:31:46;;;;;;;7.83;4.67;;;;;;;;;;5030396;28;20033;-67
2022/01/13 01:36:40;;;;;;;7.50;4.23;;;;;;;;;;5032864;28;20040;-68
2022/01/13 01:39:06;;;;;;;8.67;4.40;;;;;;;;;;5031451;28;20021;-68
2022/01/13 01:41:34;;;;;;;6.50;4.17;;;;;;;;;;5025436;28;20014;-67
2022/01/13 01:44:01;;;;;;;6.13;4.43;;;;;;;;;;5024048;28;20049;-68
2022/01/13 01:46:27;;;;;;;4.77;3.67;;;;;;;;;;5020269;28;20025;-67
2022/01/13 01:48:52;;;;;;;6.23;3.80;;;;;;;;;;5021653;28;20068;-67
2022/01/13 01:51:17;;;;;;;7.50;4.03;;;;;;;;;;5032631;28;20024;-68
2022/01/13 01:53:42;;;;;;;6.07;3.53;;;;;;;;;;5019804;28;20060;-68
2022/01/13 01:56:09;;;;;;;5.10;3.50;;;;;;;;;;5014105;28;20022;-67
2022/01/13 01:58:36;;;;;;;9.03;3.70;;;;;;;;;;5032206;28;20057;-68
2022/01/13 02:01:01;;;;;;;4.73;3.50;;;;;;;;;;5030852;28;20467;-67
2022/01/13 02:03:28;;;;;;;6.43;3.30;;;;;;;;;;5032385;28;20105;-67
2022/01/13 02:05:53;;;;;;;5.40;3.20;;;;;;;;;;5026800;28;20028;-68
2022/01/13 02:08:18;;;;;;;6.13;3.17;;;;;;;;;;5030173;28;20104;-67
2022/01/13 02:10:45;;;;;;;4.23;2.77;;;;;;;;;;5028404;28;20037;-67
2022/01/13 02:13:13;;;;;;;5.17;3.87;;;;;;;;;;5040000;28;20029;-68
2022/01/13 02:16:00;;;;;;;4.80;3.17;;;;;;;;;;5030556;28;20445;-67
2022/01/13 02:18:28;;;;;;;5.33;3.77;;;;;;;;;;5031468;28;20021;-68
2022/01/13 02:20:53;;;;;;;6.10;3.53;;;;;;;;;;5030368;28;20017;-67
2022/01/13 02:23:28;;;;;;;5.63;3.87;;;;;;;;;;5028805;28;20508;-68
2022/01/13 02:25:54;;;;;;;5.15;2.58;;;;;;;;;;5032064;28;20017;-68
2022/01/13 02:28:19;;;;;;;7.50;4.03;;;;;;;;;;5013471;28;20033;-68
2022/01/13 02:30:44;;;;;;;6.30;4.23;;;;;;;;;;5030306;28;20413;-68
2022/01/13 02:33:10;;;;;;;4.57;3.57;;;;;;;;;;5030305;28;20501;-67
2022/01/13 02:35:35;;;;;;;5.17;4.03;;;;;;;;;;5031779;28;20017;-68
2022/01/13 02:38:00;;;;;;;8.10;3.80;;;;;;;;;;5029682;28;20389;-68
2022/01/13 02:40:25;;;;;;;7.10;4.37;;;;;;;;;;5027858;28;20032;-67
2022/01/13 02:42:51;;;;;;;6.73;4.60;;;;;;;;;;5009944;28;20453;-68
2022/01/13 02:45:20;;;;;;;6.23;4.40;;;;;;;;;;5029926;28;20028;-67
2022/01/13 02:50:11;;;;;;;5.87;4.33;;;;;;;;;;5038102;28;20039;-67
2022/01/13 02:52:37;;;;;;;5.50;3.83;;;;;;;;;;5035122;28;20041;-67
2022/01/13 02:55:02;;;;;;;5.03;4.00;;;;;;;;;;5045519;28;20092;-68
2022/01/13 02:57:28;;;;;;;8.50;4.40;;;;;;;;;;5027689;28;20496;-68
2022/01/13 02:59:53;;;;;;;8.40;4.70;;;;;;;;;;5031775;28;20041;-68
2022/01/13 03:02:18;;;;;;;4.67;4.00;;;;;;;;;;5031342;28;20055;-67
2022/01/13 03:04:47;;;;;;;7.37;4.87;;;;;;;;;;5032322;28;20032;-68
2022/01/13 03:07:12;;;;;;;5.80;4.70;;;;;;;;;;5054473;28;20036;-68
2022/01/13 03:09:37;;;;;;;5.27;4.30;;;;;;;;;;5036699;28;20034;-67
2022/01/13 03:12:03;;;;;;;6.27;4.47;;;;;;;;;;5026437;28;20026;-67
2022/01/13 03:14:28;;;;;;;5.37;4.87;;;;;;;;;;5037166;28;20500;-67
2022/01/13 03:16:53;;;;;;;6.57;3.90;;;;;;;;;;5032995;28;20040;-67
2022/01/13 03:19:20;;;;;;;7.60;5.20;;;;;;;;;;5034113;28;20033;-67
2022/01/13 03:21:45;;;;;;;3.97;3.40;;;;;;;;;;5033418;28;20029;-68
2022/01/13 03:24:11;;;;;;;6.50;5.03;;;;;;;;;;5033761;28;20036;-67
2022/01/13 03:26:37;;;;;;;6.13;4.60;;;;;;;;;;5035078;28;20017;-67
2022/01/13 03:31:31;;;;;;;9.13;5.27;;;;;;;;;;5031336;28;20071;-67
2022/01/13 03:33:56;;;;;;;6.63;4.83;;;;;;;;;;5033614;28;20029;-67
2022/01/13 03:36:21;;;;;;;6.20;5.23;;;;;;;;;;5033683;28;20446;-67
2022/01/13 03:38:46;;;;;;;6.83;5.60;;;;;;;;;;5034304;28;20566;-67
2022/01/13 03:41:13;;;;;;;6.83;5.37;;;;;;;;;;5031237;28;20022;-67
2022/01/13 03:43:38;;;;;;;7.27;5.53;;;;;;;;;;5032151;28;20014;-67
2022/01/13 03:46:04;;;;;;;8.17;5.63;;;;;;;;;;5035036;28;20024;-67
2022/01/13 03:48:29;;;;;;;6.57;5.73;;;;;;;;;;5034657;28;20032;-67
2022/01/13 03:50:54;;;;;;;8.00;6.03;;;;;;;;;;5032154;28;20021;-67
2022/01/13 03:53:26;;;;;;;9.23;6.80;;;;;;;;;;5033278;28;20053;-67
2022/01/13 03:56:10;;;;;;;9.47;7.03;;;;;;;;;;5034765;28;20026;-67
2022/01/13 03:58:53;;;;;;;9.17;7.30;;;;;;;;;;5034375;28;20014;-67
2022/01/13 04:01:18;;;;;;;10.47;7.67;;;;;;;;;;5034195;28;20097;-67
2022/01/13 04:03:45;;;;;;;11.13;7.97;;;;;;;;;;5034526;28;20108;-67
2022/01/13 04:06:16;;;;;;;10.40;8.07;;;;;;;;;;5033093;28;20256;-68
2022/01/13 04:08:41;;;;;;;10.80;7.90;;;;;;;;;;5027908;28;20017;-67
2022/01/13 04:11:07;;;;;;;9.77;7.70;;;;;;;;;;5030701;28;20108;-67
2022/01/13 04:13:57;;;;;;;10.53;8.03;;;;;;;;;;5032457;28;20413;-67
2022/01/13 04:16:25;;;;;;;10.70;7.97;;;;;;;;;;5033502;28;20103;-67
2022/01/13 04:18:51;;;;;;;10.63;8.20;;;;;;;;;;5034147;28;20060;-67
2022/01/13 04:21:16;;;;;;;10.40;8.43;;;;;;;;;;5016590;28;20071;-67
2022/01/13 04:23:42;;;;;;;9.73;8.20;;;;;;;;;;5030843;28;20025;-67
2022/01/13 04:26:08;;;;;;;11.50;8.97;;;;;;;;;;5033320;28;20033;-67
2022/01/13 04:28:33;;;;;;;9.73;8.17;;;;;;;;;;5032584;28;20029;-67
2022/01/13 04:31:01;;;;;;;11.30;8.90;;;;;;;;;;5033233;28;20112;-67
2022/01/13 04:33:27;;;;;;;11.77;8.90;;;;;;;;;;5032555;28;20475;-67
2022/01/13 04:35:53;;;;;;;10.77;9.03;;;;;;;;;;5034437;28;20025;-67
2022/01/13 04:38:18;;;;;;;10.00;7.83;;;;;;;;;;5033555;28;20031;-67
2022/01/13 04:40:46;;;;;;;10.03;8.97;;;;;;;;;;5029666;28;20025;-67
2022/01/13 04:43:12;;;;;;;9.47;7.37;;;;;;;;;;5027459;28;20025;-67
2022/01/13 04:45:37;;;;;;;11.23;8.47;;;;;;;;;;5043718;28;20060;-67
2022/01/13 04:48:02;;;;;;;10.77;8.30;;;;;;;;;;5016380;28;20030;-67
2022/01/13 04:50:28;;;;;;;11.20;8.07;;;;;;;;;;5033472;28;20017;-67
2022/01/13 04:52:53;;;;;;;11.43;8.13;;;;;;;;;;5033080;28;20057;-67
2022/01/13 04:55:29;;;;;;;12.53;8.57;;;;;;;;;;5033425;28;20060;-67
2022/01/13 04:57:54;;;;;;;8.57;5.70;;;;;;;;;;5030582;28;20429;-67
2022/01/13 05:00:20;;;;;;;13.17;8.27;;;;;;;;;;5032212;28;20088;-67
2022/01/13 05:02:45;;;;;;;13.10;8.37;;;;;;;;;;5032461;28;20018;-67
2022/01/13 05:05:11;;;;;;;15.10;9.43;;;;;;;;;;5031911;28;20037;-67
2022/01/13 05:07:36;;;;;;;12.30;8.90;;;;;;;;;;5031928;28;20021;-67
2022/01/13 05:10:02;;;;;;;11.53;7.37;;;;;;;;;;5031598;28;20429;-68
2022/01/13 05:12:36;;;;;;;12.30;7.90;;;;;;;;;;5024373;28;20021;-67
2022/01/13 05:15:04;;;;;;;12.30;8.37;;;;;;;;;;5030198;28;20075;-68
2022/01/13 05:20:15;;;;;;;13.90;7.67;;;;;;;;;;5025648;28;20101;-67
2022/01/13 05:22:41;;;;;;;11.07;7.83;;;;;;;;;;5032283;28;20025;-67
2022/01/13 05:25:06;;;;;;;14.77;8.80;;;;;;;;;;5031044;28;20502;-67
2022/01/13 05:27:31;;;;;;;12.83;6.53;;;;;;;;;;5032540;28;20362;-67
2022/01/13 05:29:58;;;;;;;13.97;8.63;;;;;;;;;;5031152;28;20033;-67
2022/01/13 05:32:23;;;;;;;12.77;8.70;;;;;;;;;;5030514;28;20501;-67
2022/01/13 05:34:49;;;;;;;13.50;8.63;;;;;;;;;;5032103;28;20033;-67
2022/01/13 05:37:14;;;;;;;12.87;8.03;;;;;;;;;;5032463;28;20025;-67
2022/01/13 05:39:39;;;;;;;10.23;7.67;;;;;;;;;;5034285;28;20087;-67
2022/01/13 05:42:04;;;;;;;11.67;7.93;;;;;;;;;;5022456;28;20364;-67
2022/01/13 05:44:37;;;;;;;11.00;7.57;;;;;;;;;;5031829;28;20379;-67
2022/01/13 05:47:02;;;;;;;11.93;8.10;;;;;;;;;;5032129;28;20021;-67
2022/01/13 05:49:27;;;;;;;12.70;8.23;;;;;;;;;;5030111;28;20021;-68
2022/01/13 05:51:52;;;;;;;12.03;7.93;;;;;;;;;;5030462;28;20083;-67
2022/01/13 05:54:17;;;;;;;10.53;7.50;;;;;;;;;;5030317;28;20021;-68
2022/01/13 05:56:43;;;;;;;11.70;7.53;;;;;;;;;;5031595;28;20426;-68
2022/01/13 05:59:08;;;;;;;13.00;8.57;;;;;;;;;;5033158;28;20013;-68
2022/01/13 06:01:33;;;;;;;10.67;6.93;;;;;;;;;;5034771;28;20470;-68
2022/01/13 06:03:58;;;;;;;10.60;7.70;;;;;;;;;;5030814;28;20505;-67
2022/01/13 06:06:23;;;;;;;11.20;8.60;;;;;;;;;;5031496;28;20516;-68
2022/01/13 06:08:48;;;;;;;9.63;6.63;;;;;;;;;;5031519;28;20509;-68
2022/01/13 06:11:14;;;;;;;11.40;7.50;;;;;;;;;;5025445;28;20554;-67
2022/01/13 06:13:39;;;;;;;11.67;7.77;;;;;;;;;;5026453;28;20037;-67
2022/01/13 06:16:04;;;;;;;10.23;7.10;;;;;;;;;;5027972;28;20057;-68
2022/01/13 06:18:29;;;;;;;11.50;6.97;;;;;;;;;;5030993;28;20059;-68
2022/01/13 06:20:54;;;;;;;9.50;7.33;;;;;;;;;;5030404;28;20072;-68
2022/01/13 06:23:20;;;;;;;9.63;7.10;;;;;;;;;;5032890;28;20108;-68
2022/01/13 06:25:45;;;;;;;12.73;7.47;;;;;;;;;;5030146;28;20092;-68
2022/01/13 06:28:10;;;;;;;11.97;7.27;;;;;;;;;;5031544;28;20178;-68
2022/01/13 06:30:36;;;;;;;8.93;6.67;;;;;;;;;;5030633;28;20061;-68
2022/01/13 06:33:02;;;;;;;11.70;6.93;;;;;;;;;;5037035;28;20052;-68
2022/01/13 06:35:27;;;;;;;11.73;6.90;;;;;;;;;;5030056;28;20029;-68
2022/01/13 06:37:53;;;;;;;11.00;7.50;;;;;;;;;;5030362;28;20484;-68
2022/01/13 06:40:18;;;;;;;9.67;7.13;;;;;;;;;;5023574;28;20538;-68
2022/01/13 06:42:43;;;;;;;10.40;6.80;;;;;;;;;;5022797;28;20029;-68
2022/01/13 06:45:10;;;;;;;11.63;7.03;;;;;;;;;;5035055;28;20083;-68
2022/01/13 06:47:36;;;;;;;9.53;6.30;;;;;;;;;;5043199;28;20423;-68
2022/01/13 06:50:01;;;;;;;8.53;5.80;;;;;;;;;;5031034;28;20061;-68
2022/01/13 06:52:27;;;;;;;9.10;6.30;;;;;;;;;;5029699;28;20134;-68
2022/01/13 06:54:52;;;;;;;9.60;6.47;;;;;;;;;;5025101;28;20486;-68
2022/01/13 06:57:18;;;;;;;12.00;7.17;;;;;;;;;;5031440;28;20030;-68
2022/01/13 06:59:43;;;;;;;10.17;6.67;;;;;;;;;;5012984;28;20067;-68
2022/01/13 07:02:08;;;;;;;9.83;6.00;;;;;;;;;;5030415;28;20530;-68
2022/01/13 07:04:34;;;;;;;9.50;5.87;;;;;;;;;;5031866;28;20025;-68
2022/01/13 07:06:59;;;;;;;8.07;6.60;;;;;;;;;;5012987;28;20025;-68
2022/01/13 07:09:24;;;;;;;7.27;5.50;;;;;;;;;;5028906;28;20017;-68
2022/01/13 07:11:49;;;;;;;7.87;5.20;;;;;;;;;;5025837;28;21006;-68
2022/01/13 07:14:14;;;;;;;9.27;5.60;;;;;;;;;;5029489;28;20034;-68
2022/01/13 07:16:41;;;;;;;8.43;5.67;;;;;;;;;;5031539;28;20481;-68
2022/01/13 07:19:08;;;;;;;8.60;5.00;;;;;;;;;;5013128;28;20037;-68
2022/01/13 07:21:33;;;;;;;6.27;4.83;;;;;;;;;;5030744;28;20034;-68
2022/01/13 07:23:58;;;;;;;8.07;5.30;;;;;;;;;;5029702;28;20025;-68
2022/01/13 07:26:24;;;;;;;5.80;4.23;;;;;;;;;;5030047;28;20429;-68
2022/01/13 07:28:49;;;;;;;8.90;5.57;;;;;;;;;;5032006;28;20096;-68
2022/01/13 07:31:15;;;;;;;8.33;4.37;;;;;;;;;;5043834;28;20025;-68
2022/01/13 07:33:40;;;;;;;10.20;5.80;;;;;;;;;;5030832;28;20374;-69
2022/01/13 07:36:06;;;;;;;9.83;5.10;;;;;;;;;;5031263;28;20482;-66
2022/01/13 07:38:31;;;;;;;10.77;5.83;;;;;;;;;;5030344;28;20112;-67
2022/01/13 07:40:56;;;;;;;9.50;5.70;;;;;;;;;;5027164;28;20040;-67
2022/01/13 07:43:23;;;;;;;8.50;5.17;;;;;;;;;;5013606;28;20030;-67
2022/01/13 07:45:49;;;;;;;6.70;4.93;;;;;;;;;;5031280;28;20072;-66
2022/01/13 07:48:14;;;;;;;7.80;5.10;;;;;;;;;;5031140;28;20018;-66
2022/01/13 07:50:39;;;;;;;8.83;5.50;;;;;;;;;;5011242;28;20026;-66
2022/01/13 07:53:05;;;;;;;8.03;5.23;;;;;;;;;;5032120;28;20049;-66
2022/01/13 07:55:30;;;;;;;7.50;4.70;;;;;;;;;;5033466;28;20474;-67
2022/01/13 07:57:55;;;;;;;7.40;4.10;;;;;;;;;;5020747;28;20044;-67
2022/01/13 08:00:20;;;;;;;6.37;3.57;;;;;;;;;;5036563;28;20048;-67
2022/01/13 08:02:46;;;;;;;9.93;5.70;;;;;;;;;;5051643;28;20030;-67
2022/01/13 08:05:11;;;;;;;6.83;4.60;;;;;;;;;;5034051;28;20030;-67
2022/01/13 08:07:37;;;;;;;8.97;5.00;;;;;;;;;;5039207;28;20413;-67
2022/01/13 08:10:03;;;;;;;6.93;4.63;;;;;;;;;;5045453;28;20519;-67
2022/01/13 08:12:28;;;;;;;6.20;4.20;;;;;;;;;;5029543;28;20096;-68
2022/01/13 08:14:53;;;;;;;6.53;5.20;;;;;;;;;;5034022;28;20489;-67
2022/01/13 08:19:45;;;;;;;8.27;5.27;;;;;;;;;;5016544;28;22037;-66
2022/01/13 08:20:04;;;;;;;9.63;5.32;;;;;;;;;;5032899;28;20026;-67
2022/01/13 08:22:29;;;;;;;8.70;5.50;;;;;;;;;;5032230;28;20028;-67
2022/01/13 08:24:54;;;;;;;5.87;3.90;;;;;;;;;;5031429;28;20018;-66
2022/01/13 08:27:19;;;;;;;8.93;5.50;;;;;;;;;;5016581;28;20332;-67
2022/01/13 08:29:45;;;;;;;8.67;5.60;;;;;;;;;;5033894;28;20025;-67
2022/01/13 08:32:10;;;;;;;10.13;5.00;;;;;;;;;;5032831;28;20494;-67
2022/01/13 08:34:35;;;;;;;7.03;4.82;;;;;;;;;;5033469;28;20030;-67
2022/01/13 08:37:00;;;;;;;9.90;5.53;;;;;;;;;;5033772;28;20379;-67
2022/01/13 08:39:26;;;;;;;8.30;6.37;;;;;;;;;;5029812;28;20072;-63
2022/01/13 08:41:51;;;;;;;7.68;5.57;;;;;;;;;;5026983;28;20063;-64
2022/01/13 08:44:17;;;;;;;8.87;5.67;;;;;;;;;;5033638;28;20022;-63
2022/01/13 08:46:42;;;;;;;8.55;5.93;;;;;;;;;;5031334;28;20029;-64
2022/01/13 08:49:07;;;;;;;9.83;5.43;;;;;;;;;;5032666;28;20041;-64
2022/01/13 08:51:33;;;;;;;9.35;6.20;;;;;;;;;;5014023;28;20034;-65
2022/01/13 08:53:58;;;;;;;10.45;6.18;;;;;;;;;;5030817;28;20080;-64
2022/01/13 08:56:23;;;;;;;8.55;5.90;;;;;;;;;;5032507;28;20018;-64
2022/01/13 08:58:48;;;;;;;9.80;6.13;;;;;;;;;;5033494;28;20017;-64
2022/01/13 09:01:14;;;;;;;9.43;6.28;;;;;;;;;;5029384;28;20017;-64
2022/01/13 09:03:39;;;;;;;9.63;5.63;;;;;;;;;;5027507;28;20041;-64
2022/01/13 09:06:05;;;;;;;9.65;6.13;;;;;;;;;;5025941;28;20020;-64
2022/01/13 09:08:30;;;;;;;7.85;5.40;;;;;;;;;;5050669;28;20481;-64
2022/01/13 09:10:56;;;;;;;8.02;6.10;;;;;;;;;;5034913;28;20382;-64
2022/01/13 09:13:21;;;;;;;8.00;5.57;;;;;;;;;;5029771;28;20082;-64
2022/01/13 09:15:51;;;;;;;7.55;5.30;;;;;;;;;;5033551;28;20386;-64
2022/01/13 09:18:29;;;;;;;8.18;4.82;;;;;;;;;;5030308;28;20029;-64
2022/01/13 09:20:54;;;;;;;6.10;4.18;;;;;;;;;;5034173;28;20489;-64
2022/01/13 09:23:19;;;;;;;6.15;4.88;;;;;;;;;;5042457;28;20024;-64
2022/01/13 09:25:45;;;;;;;5.63;3.97;;;;;;;;;;5041539;28;20090;-64
2022/01/13 09:28:10;;;;;;;7.22;4.55;;;;;;;;;;5039467;28;20029;-64
2022/01/13 09:30:35;;;;;;;7.30;4.07;;;;;;;;;;5026144;28;20057;-64
2022/01/13 09:33:01;;;;;;;5.25;4.10;;;;;;;;;;5023002;28;20159;-64
2022/01/13 09:35:26;;;;;;;6.00;3.85;;;;;;;;;;5027196;28;20048;-64
2022/01/13 09:37:51;;;;;;;7.57;4.50;;;;;;;;;;5044181;28;20111;-64
2022/01/13 09:40:16;;;;;;;6.57;3.83;;;;;;;;;;5030937;28;20040;-64
2022/01/13 09:42:43;;;;;;;5.65;3.78;;;;;;;;;;5021001;28;20033;-64
2022/01/13 09:45:09;;;;;;;6.25;4.13;;;;;;;;;;5024506;28;20021;-64
2022/01/13 09:47:37;;;;;;;5.90;3.63;;;;;;;;;;5027441;28;20356;-64
2022/01/13 09:50:05;;;;;;;6.55;3.95;;;;;;;;;;5037611;28;20428;-64
2022/01/13 09:52:31;;;;;;;5.10;3.50;;;;;;;;;;5027620;28;20144;-64
2022/01/13 09:54:56;;;;;;;5.07;3.90;;;;;;;;;;5022361;28;20421;-64
2022/01/13 09:57:21;;;;;;;5.45;3.00;;;;;;;;;;5021636;28;20038;-64
2022/01/13 09:59:47;;;;;;;4.68;3.03;;;;;;;;;;5010490;28;20029;-64
2022/01/13 10:02:13;;;;;;;4.38;2.83;;;;;;;;;;5024264;28;20045;-64
2022/01/13 10:04:48;;;;;;;4.25;2.90;;;;;;;;;;5023275;28;20442;-64
2022/01/13 10:07:18;;;;;;;5.45;2.58;;;;;;;;;;5035261;28;20071;-65
2022/01/13 10:09:53;;;;;;;5.97;3.20;;;;;;;;;;5018399;28;20022;-63
2022/01/13 10:12:18;;;;;;;;;;;;;;;;;;5023608;28;20021;-64
2022/01/13 10:17:13;;;;;;;4.28;2.47;;;;;;;;;;5027815;28;20386;-64
2022/01/13 10:19:50;;;;;;;4.32;2.17;;;;;;;;;;5041399;28;20072;-64
2022/01/13 10:22:16;;;;;;;5.00;2.40;;;;;;;;;;5029597;28;20037;-64
2022/01/13 10:24:43;;;;;;;4.68;2.22;;;;;;;;;;5028653;28;20438;-63
2022/01/13 10:27:11;;;;;;;6.05;2.97;;;;;;;;;;5029599;28;20464;-64
2022/01/13 10:29:40;;;;;;;5.82;2.55;;;;;;;;;;5031823;28;20477;-64
2022/01/13 10:32:06;;;;;;;5.05;2.35;;;;;;;;;;5030945;28;20021;-63
2022/01/13 10:34:32;;;;;;;4.50;2.58;;;;;;;;;;5027909;28;20014;-63
2022/01/13 10:36:57;;;;;;;3.83;2.40;;;;;;;;;;5040133;28;20049;-64
2022/01/13 10:39:42;;;;;;;8.12;2.48;;;;;;;;;;5023488;28;20103;-63
2022/01/13 10:44:53;;;;;;;6.03;2.60;;;;;;;;;;5044008;28;20040;-64
2022/01/13 10:47:18;;;;;;;4.47;2.55;;;;;;;;;;5032763;28;20080;-64
2022/01/13 10:49:44;;;;;;;6.55;3.60;;;;;;;;;;5027979;28;20049;-64
2022/01/13 10:52:15;;;;;;;4.75;3.03;;;;;;;;;;5024414;28;20022;-64
2022/01/13 10:54:40;;;;;;;5.40;2.55;;;;;;;;;;5022665;28;20487;-64
2022/01/13 10:57:15;;;;;;;5.97;3.17;;;;;;;;;;5031380;28;20178;-64
2022/01/13 10:59:40;;;;;;;3.67;2.72;;;;;;;;;;5028832;28;20037;-64
2022/01/13 11:02:08;;;;;;;4.93;2.92;;;;;;;;;;5029154;28;20029;-64
2022/01/13 11:04:34;;;;;;;5.30;3.03;;;;;;;;;;5027635;28;20022;-64
2022/01/13 11:07:18;;;;;;;6.40;3.00;;;;;;;;;;5030906;28;20026;-64
2022/01/13 11:10:01;;;;;;;7.07;3.03;;;;;;;;;;5024701;28;20061;-64
2022/01/13 11:12:37;;;;;;;4.40;2.90;;;;;;;;;;5016574;28;20025;-64
2022/01/13 11:15:05;;;;;;;4.88;3.03;;;;;;;;;;5026734;28;20014;-64
2022/01/13 11:17:33;;;;;;;6.18;2.78;;;;;;;;;;5028067;28;20637;-64
2022/01/13 11:19:59;;;;;;;5.78;3.00;;;;;;;;;;5027739;28;20075;-64
2022/01/13 11:22:24;;;;;;;6.47;2.78;;;;;;;;;;5026945;28;20105;-64
2022/01/13 11:24:50;;;;;;;4.53;3.05;;;;;;;;;;5010895;28;20029;-64
2022/01/13 11:27:17;;;;;;;5.32;2.92;;;;;;;;;;5034346;28;20020;-64
2022/01/13 11:29:42;;;;;;;6.57;3.75;;;;;;;;;;5031491;28;20453;-64
2022/01/13 11:32:09;;;;;;;5.18;2.88;;;;;;;;;;5032596;28;20017;-64
2022/01/13 11:34:34;;;;;;;3.35;3.05;;;;;;;;;;5032222;28;20068;-64
2022/01/13 11:37:00;;;;;;;5.32;3.53;;;;;;;;;;5023982;28;20475;-64
2022/01/13 11:39:35;;;;;;;5.70;3.20;;;;;;;;;;5018408;28;20017;-64
2022/01/13 11:42:08;;;;;;;7.80;3.72;;;;;;;;;;5024196;28;20385;-65
2022/01/13 11:44:33;;;;;;;5.53;3.28;;;;;;;;;;5025017;28;20087;-64
2022/01/13 11:46:58;;;;;;;5.93;3.03;;;;;;;;;;5019707;28;20025;-64
2022/01/13 11:49:43;;;;;;;7.75;3.63;;;;;;;;;;5026587;28;20387;-64
2022/01/13 11:52:15;;;;;;;7.70;3.57;;;;;;;;;;5022341;28;20040;-64
2022/01/13 11:54:41;;;;;;;5.82;3.53;;;;;;;;;;5023665;28;21599;-65
2022/01/13 11:57:14;;;;;;;5.78;3.17;;;;;;;;;;5022923;28;20033;-66
2022/01/13 11:59:39;;;;;;;5.43;2.75;;;;;;;;;;5027464;28;20067;-66
2022/01/13 12:02:23;;;;;;;5.53;3.38;;;;;;;;;;5026336;28;20025;-66
2022/01/13 12:05:04;;;;;;;5.82;3.33;;;;;;;;;;5024212;28;20018;-64
2022/01/13 12:07:39;;;;;;;4.28;2.85;;;;;;;;;;5024070;28;20071;-66
2022/01/13 12:10:07;;;;;;;5.68;2.95;;;;;;;;;;5025385;28;20035;-68
2022/01/13 12:12:33;;;;;;;5.10;2.63;;;;;;;;;;5034034;28;20167;-67
2022/01/13 12:15:18;;;;;;;4.80;2.65;;;;;;;;;;5029152;28;20465;-63
2022/01/13 12:17:44;;;;;;;4.82;2.58;;;;;;;;;;5046700;28;20028;-75
2022/01/13 12:20:23;;;;;;;4.45;2.47;;;;;;;;;;5033377;28;20017;-67
2022/01/13 12:23:16;;;;;;;3.58;2.45;;;;;;;;;;5029993;28;20515;-66
2022/01/13 12:25:37;;;;;;;3.40;2.35;;;;;;;;;;5031563;28;20433;-69
2022/01/13 12:28:17;;;;;;;5.00;2.25;;;;;;;;;;5030953;28;20478;-70
2022/01/13 12:30:43;;;;;;;4.53;2.47;;;;;;;;;;5021200;28;20045;-65
2022/01/13 12:33:09;;;;;;;4.70;2.75;;;;;;;;;;5032328;28;20501;-68
2022/01/13 12:35:34;;;;;;;2.38;2.10;;;;;;;;;;5032154;28;20033;-69
2022/01/13 12:38:02;;;;;;;3.95;2.28;;;;;;;;;;5031112;28;20026;-72
2022/01/13 12:40:30;;;;;;;3.33;2.45;;;;;;;;;;5030806;28;20081;-72
2022/01/13 12:42:56;;;;;;;4.57;2.50;;;;;;;;;;5032556;28;20017;-72
2022/01/13 12:45:33;;;;;;;9.40;2.60;;;;;;;;;;5034875;28;20032;-68
2022/01/13 12:48:08;;;;;;;3.30;2.15;;;;;;;;;;5032057;28;20063;-71
2022/01/13 12:50:41;;;;;;;3.65;2.42;;;;;;;;;;5043086;28;20151;-68
2022/01/13 12:53:09;;;;;;;4.45;2.40;;;;;;;;;;5042358;28;20045;-70
2022/01/13 12:55:35;;;;;;;2.80;2.35;;;;;;;;;;5037015;28;20025;-68
2022/01/13 12:58:01;;;;;;;5.18;2.55;;;;;;;;;;5045251;28;20028;-70
2022/01/13 13:00:26;;;;;;;7.35;2.35;;;;;;;;;;5027263;28;20025;-70
2022/01/13 13:02:52;;;;;;;2.80;2.13;;;;;;;;;;5043919;28;20028;-70
2022/01/13 13:05:28;;;;;;;3.22;2.03;;;;;;;;;;5045145;28;20519;-70
2022/01/13 13:07:53;;;;;;;4.15;2.72;;;;;;;;;;5033798;28;20469;-69
2022/01/13 13:10:19;;;;;;;3.75;2.25;;;;;;;;;;5045248;28;20028;-69
2022/01/13 13:12:50;;;;;;;4.45;2.38;;;;;;;;;;5015318;28;20026;-66
2022/01/13 13:17:46;;;;;;;4.72;2.38;;;;;;;;;;5027872;28;20382;-71
2022/01/13 13:20:24;;;;;;;4.93;2.25;;;;;;;;;;5032600;28;20258;-69
2022/01/13 13:22:50;;;;;;;4.78;3.08;;;;;;;;;;5032271;28;20036;-70
2022/01/13 13:25:27;;;;;;;2.92;2.50;;;;;;;;;;5044759;28;20018;-68
2022/01/13 13:27:52;;;;;;;3.97;2.42;;;;;;;;;;5018567;28;20034;-68
2022/01/13 13:30:17;;;;;;;5.65;2.22;;;;;;;;;;5058196;28;20374;-70
2022/01/13 13:32:52;;;;;;;4.10;2.38;;;;;;;;;;5036841;28;20433;-63
2022/01/13 13:35:20;;;;;;;3.67;2.22;;;;;;;;;;5033047;28;20059;-66
2022/01/13 13:37:46;;;;;;;3.80;1.95;;;;;;;;;;5028193;28;20442;-68
2022/01/13 13:40:21;;;;;;;2.95;2.10;;;;;;;;;;5031673;28;20079;-68
2022/01/13 13:43:07;;;;;;;2.42;1.73;;;;;;;;;;5024191;28;20032;-68
2022/01/13 13:45:32;;;;;;;3.15;1.85;;;;;;;;;;5037460;28;20117;-68
2022/01/13 13:47:58;;;;;;;5.53;2.40;;;;;;;;;;5014446;28;20462;-68
2022/01/13 13:50:24;;;;;;;3.83;2.00;;;;;;;;;;5035335;28;20505;-68
2022/01/13 13:53:08;;;;;;;2.75;1.90;;;;;;;;;;5020629;28;20436;-67
2022/01/13 13:55:33;;;;;;;4.55;2.58;;;;;;;;;;5034919;28;20072;-67
2022/01/13 13:57:59;;;;;;;3.28;2.08;;;;;;;;;;5027686;28;20033;-68
2022/01/13 14:00:26;;;;;;;5.13;2.78;;;;;;;;;;5029733;28;20028;-68
2022/01/13 14:02:53;;;;;;;3.88;2.63;;;;;;;;;;5042824;28;20025;-68
2022/01/13 14:05:18;;;;;;;4.80;3.08;;;;;;;;;;5033797;28;20017;-68
2022/01/13 14:07:46;;;;;;;5.30;3.35;;;;;;;;;;5039469;28;20025;-67
2022/01/13 14:10:19;;;;;;;4.10;3.10;;;;;;;;;;5041582;28;20124;-68
2022/01/13 14:12:53;;;;;;;3.38;2.50;;;;;;;;;;5019644;28;20040;-68
2022/01/13 14:15:19;;;;;;;5.65;3.13;;;;;;;;;;5023303;28;20075;-68
2022/01/13 14:17:45;;;;;;;4.72;2.55;;;;;;;;;;5036936;28;20029;-68
2022/01/13 14:20:18;;;;;;;4.90;2.75;;;;;;;;;;5019366;28;20017;-68
2022/01/13 14:22:43;;;;;;;3.42;2.58;;;;;;;;;;5038866;28;20055;-68
2022/01/13 14:25:12;;;;;;;5.72;3.08;;;;;;;;;;5038200;28;20428;-68
2022/01/13 14:27:54;;;;;;;5.18;2.92;;;;;;;;;;5022910;28;20029;-68
2022/01/13 14:30:28;;;;;;;5.50;3.15;;;;;;;;;;5019566;28;20029;-68
2022/01/13 14:33:10;;;;;;;4.33;3.17;;;;;;;;;;5024858;28;20081;-68
2022/01/13 14:35:36;;;;;;;6.20;3.70;;;;;;;;;;5020962;28;20083;-69
2022/01/13 14:38:01;;;;;;;5.10;2.97;;;;;;;;;;5030078;28;20033;-69
2022/01/13 14:40:28;;;;;;;3.72;2.83;;;;;;;;;;5010011;28;20026;-68
2022/01/13 14:43:04;;;;;;;4.53;3.40;;;;;;;;;;5020239;28;20033;-68
2022/01/13 14:45:30;;;;;;;4.22;3.00;;;;;;;;;;5035061;28;20032;-67
2022/01/13 14:47:55;;;;;;;5.93;3.17;;;;;;;;;;5028529;28;20034;-68
2022/01/13 14:50:20;;;;;;;4.32;3.10;;;;;;;;;;5034618;28;20175;-68
2022/01/13 14:52:49;;;;;;;4.82;3.25;;;;;;;;;;5032389;28;20049;-67
2022/01/13 14:55:15;;;;;;;4.97;3.83;;;;;;;;;;5039714;28;20025;-67
2022/01/13 14:57:40;;;;;;;5.10;3.83;;;;;;;;;;5024059;28;20022;-68
2022/01/13 15:00:06;;;;;;;4.53;3.38;;;;;;;;;;5029486;28;20515;-69
2022/01/13 15:02:31;;;;;;;4.75;3.20;;;;;;;;;;5036491;28;20025;-69
2022/01/13 15:04:56;;;;;;;4.82;3.47;;;;;;;;;;5036996;28;20060;-68
2022/01/13 15:07:22;;;;;;;6.63;3.72;;;;;;;;;;5032365;28;20022;-68
2022/01/13 15:09:48;;;;;;;4.43;3.28;;;;;;;;;;5040154;28;20385;-69
2022/01/13 15:12:13;;;;;;;6.65;3.60;;;;;;;;;;5029230;28;20037;-68
2022/01/13 15:14:38;;;;;;;4.95;3.72;;;;;;;;;;5034114;28;20060;-69